Time;durP1;ratioP1;P1;durP2;ratioP2;P2;SDS_P1;SDS_P2;PMS_P1;PMS_P2;Temp;Humidity;BMP_temperature;BMP_pressure;BME280_temperature;BME280_humidity;BME280_pressure;Samples;Min_cycle;Max_cycle;Signal;HPM_P1;HPM_P2
2021/11/20 00:02:15;;;;;;;1.20;1.20;;;;;;;12.87;67.88;100054.20;101196;1320;109391;-74
2021/11/20 00:04:45;;;;;;;1.20;1.20;;;;;;;12.84;67.43;100048.98;101082;1321;156197;-75
2021/11/20 00:07:13;;;;;;;2.00;1.90;;;;;;;12.84;67.45;100055.38;101209;1318;95732;-75
2021/11/20 00:09:41;;;;;;;2.30;2.20;;;;;;;12.81;67.33;100054.48;101162;1317;138554;-75
2021/11/20 00:12:14;;;;;;;1.60;1.60;;;;;;;12.78;67.42;100070.42;101207;1318;108390;-76
2021/11/20 00:14:42;;;;;;;1.40;1.40;;;;;;;12.76;67.37;100073.20;101212;1318;108725;-76
2021/11/20 00:17:11;;;;;;;1.60;1.60;;;;;;;12.79;67.74;100079.85;101203;1318;139839;-76
2021/11/20 00:19:39;;;;;;;2.90;2.80;;;;;;;12.84;67.30;100081.78;101419;1315;95631;-74
2021/11/20 00:22:20;;;;;;;1.70;1.70;;;;;;;12.83;67.34;100091.23;101082;1318;138539;-75
2021/11/20 00:25:07;;;;;;;1.40;1.40;;;;;;;12.83;67.38;100088.23;101212;1318;108850;-74
2021/11/20 00:27:37;;;;;;;1.60;1.60;;;;;;;12.84;67.23;100091.91;101143;1318;139029;-76
2021/11/20 00:30:22;;;;;;;2.30;2.20;;;;;;;12.85;67.13;100094.73;101265;1318;95666;-76
2021/11/20 00:32:57;;;;;;;1.70;1.70;;;;;;;12.82;67.11;100103.95;101094;1319;139270;-76
2021/11/20 00:35:29;;;;;;;1.70;1.70;;;;;;;12.79;67.19;100088.54;101143;1318;108766;-74
2021/11/20 00:37:57;;;;;;;1.50;1.50;;;;;;;12.79;67.25;100098.72;101436;1313;95373;-75
2021/11/20 00:40:35;;;;;;;2.80;2.70;;;;;;;12.81;67.26;100095.96;101374;1318;139876;-76
2021/11/20 00:43:03;;;;;;;1.80;1.80;;;;;;;12.82;67.24;100104.11;101321;1318;110211;-75
2021/11/20 00:45:32;;;;;;;1.30;1.30;;;;;;;12.82;67.05;100112.14;101141;1318;138686;-76
2021/11/20 00:48:00;;;;;;;1.70;1.70;;;;;;;12.83;67.12;100114.59;101245;1318;95267;-75
2021/11/20 00:50:30;;;;;;;1.70;1.70;;;;;;;12.84;66.90;100115.42;101251;1318;95809;-75
2021/11/20 00:52:58;;;;;;;2.10;2.00;;;;;;;12.84;66.89;100122.56;101065;1318;139398;-74
2021/11/20 00:55:28;;;;;;;2.50;2.40;;;;;;;12.82;66.81;100118.36;101148;1318;109869;-75
2021/11/20 00:57:58;;;;;;;1.90;1.80;;;;;;;12.81;66.81;100116.80;101341;1318;139300;-75
2021/11/20 01:00:30;;;;;;;1.30;1.30;;;;;;;12.77;66.68;100111.27;101301;1318;95259;-74
2021/11/20 01:03:00;;;;;;;2.10;2.00;;;;;;;12.78;66.66;100119.63;101221;1318;140154;-75
2021/11/20 01:05:28;;;;;;;1.70;1.70;;;;;;;12.79;66.58;100121.34;101223;1318;108669;-77
2021/11/20 01:07:56;;;;;;;1.50;1.50;;;;;;;12.80;66.78;100124.70;101086;1321;95294;-76
2021/11/20 01:10:27;;;;;;;1.30;1.30;;;;;;;12.78;66.34;100127.98;101034;1320;140182;-75
2021/11/20 01:12:57;;;;;;;1.90;1.90;;;;;;;12.77;66.58;100123.20;101236;1318;108865;-76
2021/11/20 01:15:30;;;;;;;2.80;2.70;;;;;;;12.77;66.18;100131.57;101058;1318;138853;-76
2021/11/20 01:17:59;;;;;;;1.60;1.60;;;;;;;12.76;66.12;100128.40;101231;1318;95799;-75
2021/11/20 01:20:28;;;;;;;1.60;1.60;;;;;;;12.78;66.08;100116.23;101228;1318;95691;-76
2021/11/20 01:22:58;;;;;;;1.70;1.70;;;;;;;12.81;65.96;100120.89;101033;1321;138457;-75
2021/11/20 01:25:36;;;;;;;2.30;2.20;;;;;;;12.85;65.82;100126.98;101201;1318;109396;-74
2021/11/20 01:28:20;;;;;;;2.40;2.30;;;;;;;12.83;65.82;100122.96;101142;1318;138374;-75
2021/11/20 01:30:56;;;;;;;1.50;1.50;;;;;;;12.80;65.68;100115.25;101292;1317;95513;-74
2021/11/20 01:33:40;;;;;;;2.50;2.40;;;;;;;12.78;65.18;100105.52;100930;1318;138853;-74
2021/11/20 01:36:09;;;;;;;2.40;2.30;;;;;;;12.81;65.21;100112.15;101144;1317;109756;-77
2021/11/20 01:38:38;;;;;;;2.60;2.50;;;;;;;12.82;65.10;100111.42;101302;1318;96516;-74
2021/11/20 01:41:18;;;;;;;2.10;2.00;;;;;;;12.81;65.16;100106.12;101194;1317;138820;-76
2021/11/20 01:44:13;;;;;;;2.40;2.30;;;;;;;12.79;64.88;100109.05;101164;1318;105941;-76
2021/11/20 01:46:45;;;;;;;2.40;2.30;;;;;;;12.79;64.81;100114.02;101315;1318;138415;-76
2021/11/20 01:49:23;;;;;;;2.70;2.60;;;;;;;12.83;64.97;100103.36;101133;1321;96247;-75
2021/11/20 01:52:00;;;;;;;1.30;1.30;;;;;;;12.83;64.63;100102.30;101070;1320;139238;-75
2021/11/20 01:54:37;;;;;;;1.30;1.30;;;;;;;12.85;64.83;100108.48;101062;1321;108999;-74
2021/11/20 01:57:51;;;;;;;2.10;2.00;;;;;;;12.91;64.68;100112.86;100454;1325;139700;-74
2021/11/20 02:00:47;;;;;;;2.30;2.20;;;;;;;12.91;64.50;100111.44;100607;1324;95429;-76
2021/11/20 02:03:44;;;;;;;1.60;1.60;;;;;;;12.93;64.51;100117.77;100946;1318;137991;-75
2021/11/20 02:06:49;;;;;;;1.20;1.20;;;;;;;12.93;64.24;100110.63;101157;1318;108522;-73
2021/11/20 02:09:33;;;;;;;1.60;1.60;;;;;;;12.92;64.14;100106.21;101051;1318;140216;-76
2021/11/20 02:12:18;;;;;;;2.60;2.50;;;;;;;12.91;64.29;100102.15;101244;1318;95256;-75
2021/11/20 02:14:47;;;;;;;1.70;1.70;;;;;;;12.91;64.20;100095.94;100928;1321;95384;-76
2021/11/20 02:17:19;;;;;;;1.60;1.60;;;;;;;12.89;64.18;100099.20;101099;1321;138398;-75
2021/11/20 02:19:51;;;;;;;2.50;2.40;;;;;;;12.92;64.22;100101.98;101180;1318;109813;-74
2021/11/20 02:22:40;;;;;;;2.60;2.50;;;;;;;12.91;64.03;100111.77;101139;1318;138532;-77
2021/11/20 02:25:12;;;;;;;1.60;1.60;;;;;;;12.90;64.16;100118.40;101246;1318;95258;-76
2021/11/20 02:27:47;;;;;;;1.50;1.50;;;;;;;12.85;64.24;100116.31;101044;1318;139846;-75
2021/11/20 02:30:34;;;;;;;2.20;2.10;;;;;;;12.85;64.19;100113.41;101283;1320;109811;-76
2021/11/20 02:33:09;;;;;;;2.10;2.00;;;;;;;12.87;64.34;100124.40;100848;1323;139701;-76
2021/11/20 02:36:02;;;;;;;2.80;2.70;;;;;;;12.89;64.26;100132.87;101197;1318;95274;-76
2021/11/20 02:38:37;;;;;;;1.70;1.70;;;;;;;12.86;64.14;100113.20;101381;1318;108037;-75
2021/11/20 02:41:08;;;;;;;1.60;1.60;;;;;;;12.83;63.65;100116.89;101159;1318;139794;-76
2021/11/20 02:43:41;;;;;;;2.40;2.30;;;;;;;12.83;63.73;100121.02;101183;1320;96580;-75
2021/11/20 02:46:19;;;;;;;2.60;2.50;;;;;;;12.84;63.84;100118.80;101198;1318;137981;-75
2021/11/20 02:48:48;;;;;;;1.60;1.60;;;;;;;12.83;63.66;100115.83;101223;1319;107806;-74
2021/11/20 02:51:23;;;;;;;1.90;1.90;;;;;;;12.79;63.23;100114.41;101102;1318;138984;-75
2021/11/20 02:54:03;;;;;;;2.10;2.00;;;;;;;12.80;63.50;100100.61;101163;1319;96211;-75
2021/11/20 02:56:43;;;;;;;2.10;2.00;;;;;;;12.80;63.78;100112.23;101384;1318;96530;-75
2021/11/20 02:59:12;;;;;;;2.00;1.90;;;;;;;12.78;63.68;100124.94;101285;1321;138181;-76
2021/11/20 03:01:44;;;;;;;1.50;1.50;;;;;;;12.75;63.83;100113.13;101251;1318;109885;-76
2021/11/20 03:04:14;;;;;;;2.30;2.20;;;;;;;12.75;63.48;100105.84;101197;1321;140258;-77
2021/11/20 03:06:43;;;;;;;2.20;2.10;;;;;;;12.78;63.43;100113.39;101294;1318;95701;-76
2021/11/20 03:09:12;;;;;;;2.50;2.40;;;;;;;12.79;63.60;100121.17;100921;1324;138529;-77
2021/11/20 03:11:41;;;;;;;1.60;1.60;;;;;;;12.78;63.48;100112.30;100946;1324;109915;-75
2021/11/20 03:14:11;;;;;;;1.50;1.50;;;;;;;12.74;63.55;100113.52;101232;1318;95914;-76
2021/11/20 03:16:49;;;;;;;2.10;2.00;;;;;;;12.75;63.65;100130.23;101194;1318;139413;-77
2021/11/20 03:19:19;;;;;;;2.50;2.40;;;;;;;12.77;63.64;100125.54;101242;1318;105772;-78
2021/11/20 03:21:51;;;;;;;2.50;2.40;;;;;;;12.76;63.47;100127.53;101157;1318;138701;-76
2021/11/20 03:24:22;;;;;;;1.40;1.40;;;;;;;12.70;63.30;100145.72;101259;1321;97514;-77
2021/11/20 03:26:53;;;;;;;1.70;1.70;;;;;;;12.69;63.31;100147.75;101336;1321;96579;-75
2021/11/20 03:29:23;;;;;;;2.50;2.40;;;;;;;12.70;63.38;100141.98;101351;1318;138627;-74
2021/11/20 03:31:54;;;;;;;2.40;2.30;;;;;;;12.69;63.25;100145.42;101257;1319;109916;-77
2021/11/20 03:34:24;;;;;;;1.50;1.50;;;;;;;12.69;63.53;100160.54;101141;1319;137915;-77
2021/11/20 03:36:53;;;;;;;1.30;1.30;;;;;;;12.68;63.16;100157.92;101011;1320;95197;-75
2021/11/20 03:39:26;;;;;;;2.10;2.00;;;;;;;12.68;63.12;100158.81;101145;1319;138797;-77
2021/11/20 03:41:54;;;;;;;2.70;2.60;;;;;;;12.66;63.14;100164.59;101155;1319;107923;-76
2021/11/20 03:44:22;;;;;;;2.50;2.40;;;;;;;12.62;63.17;100169.74;101138;1321;95361;-75
2021/11/20 03:46:51;;;;;;;1.50;1.50;;;;;;;12.58;63.18;100162.96;101249;1317;137658;-77
2021/11/20 03:49:20;;;;;;;2.40;2.30;;;;;;;12.57;62.93;100173.33;101126;1321;108666;-77
2021/11/20 03:51:48;;;;;;;2.30;2.20;;;;;;;12.58;62.90;100184.35;101106;1318;138468;-77
2021/11/20 03:54:16;;;;;;;3.00;2.90;;;;;;;12.56;63.00;100180.85;101119;1322;95826;-76
2021/11/20 03:56:44;;;;;;;1.40;1.40;;;;;;;12.51;63.14;100183.52;101164;1321;96597;-77
2021/11/20 03:59:12;;;;;;;1.60;1.60;;;;;;;12.47;63.19;100190.08;101040;1321;139324;-76
2021/11/20 04:01:43;;;;;;;2.00;1.90;;;;;;;12.48;63.44;100198.25;101161;1321;107857;-76
2021/11/20 04:04:12;;;;;;;2.10;2.00;;;;;;;12.49;63.30;100201.77;101052;1318;138862;-78
2021/11/20 04:06:40;;;;;;;3.10;3.00;;;;;;;12.48;63.41;100198.94;101194;1321;95561;-76
2021/11/20 04:09:12;;;;;;;1.70;1.70;;;;;;;12.44;63.47;100202.83;101020;1319;138236;-77
2021/11/20 04:11:45;;;;;;;2.00;1.90;;;;;;;12.44;63.49;100203.92;101069;1318;109441;-78
2021/11/20 04:14:14;;;;;;;2.00;1.90;;;;;;;12.43;63.16;100199.30;101526;1318;95774;-77
2021/11/20 04:16:44;;;;;;;2.30;2.20;;;;;;;12.39;63.07;100203.21;101158;1320;137811;-77
2021/11/20 04:19:15;;;;;;;2.70;2.60;;;;;;;12.34;62.74;100200.54;101074;1320;108631;-76
2021/11/20 04:21:43;;;;;;;1.60;1.60;;;;;;;12.29;62.82;100204.96;101168;1318;139647;-77
2021/11/20 04:24:12;;;;;;;1.60;1.60;;;;;;;12.27;62.80;100202.21;101170;1319;95340;-76
2021/11/20 04:27:15;;;;;;;2.40;2.30;;;;;;;12.24;62.58;100202.51;100461;1327;138966;-75
2021/11/20 04:30:04;;;;;;;3.50;3.40;;;;;;;12.21;62.50;100205.27;101242;1318;107772;-76
2021/11/20 04:32:32;;;;;;;2.10;2.00;;;;;;;12.21;62.67;100207.40;101236;1321;109887;-77
2021/11/20 04:35:00;;;;;;;1.90;1.80;;;;;;;12.17;62.41;100205.05;100729;1320;139964;-76
2021/11/20 04:37:28;;;;;;;2.30;2.20;;;;;;;12.17;62.66;100216.44;101041;1318;95905;-77
2021/11/20 04:39:59;;;;;;;3.30;3.20;;;;;;;12.19;62.37;100215.85;101162;1319;139594;-78
2021/11/20 04:42:28;;;;;;;3.10;3.00;;;;;;;12.17;62.33;100213.77;101297;1318;109775;-76
2021/11/20 04:44:56;;;;;;;3.40;3.30;;;;;;;12.12;61.70;100218.23;101028;1321;96084;-75
2021/11/20 04:47:24;;;;;;;1.80;1.80;;;;;;;12.07;61.80;100215.21;101578;1318;139405;-76
2021/11/20 04:49:52;;;;;;;2.90;2.80;;;;;;;12.06;61.79;100218.80;101089;1319;108869;-76
2021/11/20 04:52:21;;;;;;;3.30;3.20;;;;;;;12.05;61.72;100222.21;101354;1318;140597;-75
2021/11/20 04:54:49;;;;;;;3.50;3.40;;;;;;;12.02;61.51;100222.13;101157;1319;95819;-76
2021/11/20 04:57:30;;;;;;;3.20;3.10;;;;;;;11.98;61.63;100224.41;101245;1318;139598;-76
2021/11/20 04:59:57;;;;;;;1.60;1.60;;;;;;;11.88;61.45;100228.27;101147;1320;108385;-75
2021/11/20 05:02:27;;;;;;;2.60;2.50;;;;;;;11.88;61.69;100226.14;100980;1321;108918;-76
2021/11/20 05:04:55;;;;;;;2.90;2.80;;;;;;;11.90;61.46;100229.13;101116;1320;138502;-75
2021/11/20 05:07:23;;;;;;;3.70;3.60;;;;;;;11.84;61.28;100233.42;101148;1322;95277;-76
2021/11/20 05:09:53;;;;;;;2.80;2.70;;;;;;;11.82;61.55;100239.33;101080;1320;137742;-76
2021/11/20 05:12:23;;;;;;;2.10;2.00;;;;;;;11.80;61.25;100244.58;101347;1320;109723;-76
2021/11/20 05:14:51;;;;;;;1.50;1.50;;;;;;;11.77;61.38;100250.35;101276;1318;95752;-75
2021/11/20 05:17:19;;;;;;;2.40;2.30;;;;;;;11.76;61.38;100255.54;101175;1318;139528;-76
2021/11/20 05:19:47;;;;;;;4.00;3.90;;;;;;;11.77;61.20;100260.16;101228;1318;108890;-76
2021/11/20 05:22:15;;;;;;;3.10;3.00;;;;;;;11.76;61.35;100266.96;101102;1318;139247;-76
2021/11/20 05:24:44;;;;;;;2.20;2.10;;;;;;;11.69;61.26;100270.37;101116;1320;95273;-76
2021/11/20 05:27:12;;;;;;;1.50;1.50;;;;;;;11.65;61.55;100272.09;101004;1324;138383;-77
2021/11/20 05:32:27;;;;;;;2.90;2.80;;;;;;;11.65;61.44;100277.24;101159;1320;110348;-76
2021/11/20 05:34:54;;;;;;;2.70;2.60;;;;;;;11.64;61.18;100276.59;100867;1321;139477;-76
2021/11/20 05:37:23;;;;;;;2.80;2.70;;;;;;;11.61;61.15;100284.52;101182;1321;95354;-77
2021/11/20 05:39:50;;;;;;;2.20;2.10;;;;;;;11.57;61.13;100288.00;101125;1318;139428;-77
2021/11/20 05:42:19;;;;;;;2.50;2.40;;;;;;;11.59;61.29;100298.27;101067;1324;110082;-75
2021/11/20 05:44:49;;;;;;;2.60;2.50;;;;;;;11.58;61.17;100300.06;101245;1319;95235;-77
2021/11/20 05:47:19;;;;;;;2.90;2.80;;;;;;;11.60;61.33;100302.14;101177;1323;138132;-76
2021/11/20 05:49:47;;;;;;;3.20;3.10;;;;;;;11.61;61.38;100298.57;101156;1318;107860;-76
2021/11/20 05:52:18;;;;;;;1.60;1.60;;;;;;;11.58;61.31;100301.30;101097;1321;140361;-77
2021/11/20 05:54:46;;;;;;;2.00;1.90;;;;;;;11.56;61.32;100308.86;101134;1321;95564;-76
2021/11/20 05:57:24;;;;;;;3.00;2.90;;;;;;;11.56;61.33;100311.52;101183;1318;139744;-76
2021/11/20 06:00:08;;;;;;;3.30;3.20;;;;;;;11.53;61.19;100318.89;101244;1319;109147;-75
2021/11/20 06:02:52;;;;;;;3.10;3.00;;;;;;;11.48;61.52;100321.87;101182;1318;109942;-76
2021/11/20 06:05:24;;;;;;;1.50;1.50;;;;;;;11.42;61.53;100323.67;100893;1321;139104;-76
2021/11/20 06:07:53;;;;;;;2.70;2.60;;;;;;;11.42;61.50;100330.27;101227;1318;95775;-75
2021/11/20 06:10:22;;;;;;;2.70;2.60;;;;;;;11.44;61.67;100331.81;101065;1321;138241;-77
2021/11/20 06:12:50;;;;;;;2.80;2.70;;;;;;;11.45;61.55;100341.20;101141;1320;110510;-77
2021/11/20 06:15:19;;;;;;;2.90;2.80;;;;;;;11.45;61.58;100346.18;101041;1319;138956;-77
2021/11/20 06:17:50;;;;;;;1.80;1.80;;;;;;;11.43;61.57;100351.55;101302;1318;96397;-76
2021/11/20 06:20:18;;;;;;;2.30;2.20;;;;;;;11.43;61.57;100357.45;100960;1324;108163;-76
2021/11/20 06:22:47;;;;;;;3.00;2.90;;;;;;;11.43;61.45;100354.05;101209;1318;138826;-76
2021/11/20 06:25:16;;;;;;;3.40;3.30;;;;;;;11.43;61.53;100357.23;101115;1324;97274;-75
2021/11/20 06:27:44;;;;;;;3.20;3.10;;;;;;;11.41;61.53;100364.44;101060;1323;139109;-77
2021/11/20 06:30:19;;;;;;;1.50;1.50;;;;;;;11.39;61.73;100364.29;101317;1319;107887;-75
2021/11/20 06:32:48;;;;;;;2.40;2.30;;;;;;;11.41;61.81;100367.98;100931;1322;109817;-76
2021/11/20 06:35:45;;;;;;;2.50;2.40;;;;;;;11.45;61.79;100376.02;101019;1318;138815;-76
2021/11/20 06:38:26;;;;;;;3.20;3.10;;;;;;;11.47;61.52;100379.17;101269;1318;96897;-76
2021/11/20 06:40:57;;;;;;;2.50;2.40;;;;;;;11.47;61.56;100383.80;101084;1318;137953;-77
2021/11/20 06:43:28;;;;;;;2.20;2.10;;;;;;;11.45;61.53;100383.34;101164;1320;108846;-75
2021/11/20 06:45:58;;;;;;;2.30;2.20;;;;;;;11.46;61.57;100386.48;101210;1319;139864;-76
2021/11/20 06:48:27;;;;;;;3.20;3.10;;;;;;;11.48;61.40;100387.33;101339;1318;95329;-75
2021/11/20 06:51:19;;;;;;;4.00;3.90;;;;;;;11.45;61.48;100390.79;101291;1318;107897;-78
2021/11/20 06:54:02;;;;;;;2.00;1.90;;;;;;;11.43;61.70;100400.64;101048;1319;139711;-78
2021/11/20 06:57:03;;;;;;;2.40;2.30;;;;;;;11.44;61.75;100404.89;101249;1320;95794;-77
2021/11/20 07:03:26;;;;;;;3.40;3.30;;;;;;;11.48;61.34;100413.46;101180;1319;107700;-76
2021/11/20 07:06:04;;;;;;;2.00;1.90;;;;;;;11.49;61.61;100417.52;100844;1324;141084;-75
2021/11/20 07:08:31;;;;;;;2.10;2.00;;;;;;;11.46;61.39;100417.23;101083;1322;95751;-76
2021/11/20 07:11:00;;;;;;;2.70;2.60;;;;;;;11.50;61.52;100424.77;100915;1324;139358;-76
2021/11/20 07:13:28;;;;;;;3.00;2.90;;;;;;;11.51;61.49;100427.04;101298;1323;107858;-76
2021/11/20 07:15:56;;;;;;;3.20;3.10;;;;;;;11.52;61.44;100427.89;100914;1320;138860;-77
2021/11/20 07:18:26;;;;;;;2.70;2.60;;;;;;;11.51;61.31;100431.66;101046;1321;96915;-76
2021/11/20 07:21:33;;;;;;;1.30;1.30;;;;;;;11.48;61.43;100432.48;100362;1329;95440;-77
2021/11/20 07:24:21;;;;;;;2.00;1.90;;;;;;;11.52;61.32;100432.36;100519;1324;138473;-76
2021/11/20 07:26:50;;;;;;;3.10;3.00;;;;;;;11.54;61.27;100425.20;101014;1325;107405;-76
2021/11/20 07:29:18;;;;;;;3.60;3.50;;;;;;;11.57;61.25;100415.87;101312;1321;140278;-75
2021/11/20 07:31:58;;;;;;;2.10;2.00;;;;;;;11.59;61.02;100414.92;101315;1318;95294;-76
2021/11/20 07:34:27;;;;;;;1.40;1.40;;;;;;;11.59;60.91;100406.38;100952;1321;138524;-75
2021/11/20 07:37:00;;;;;;;2.20;2.10;;;;;;;11.60;60.84;100406.19;101119;1320;109471;-75
2021/11/20 07:39:28;;;;;;;3.40;3.30;;;;;;;11.58;60.71;100412.09;101371;1321;95396;-76
2021/11/20 07:41:56;;;;;;;3.50;3.40;;;;;;;11.60;60.85;100414.52;101116;1318;139762;-76
2021/11/20 07:44:25;;;;;;;3.90;3.80;;;;;;;11.62;60.78;100410.38;101133;1325;107987;-76
2021/11/20 07:46:55;;;;;;;2.00;1.90;;;;;;;11.63;60.77;100415.88;101061;1321;138474;-76
2021/11/20 07:49:28;;;;;;;2.10;2.00;;;;;;;11.67;60.59;100420.18;101172;1322;96383;-75
2021/11/20 07:51:56;;;;;;;3.00;2.90;;;;;;;11.70;60.49;100417.95;101169;1324;95284;-74
2021/11/20 07:54:24;;;;;;;3.00;2.90;;;;;;;11.72;60.63;100421.64;101015;1321;137833;-76
2021/11/20 07:57:11;;;;;;;3.00;2.90;;;;;;;11.73;60.43;100426.39;101318;1318;109654;-75
2021/11/20 07:59:39;;;;;;;2.20;2.10;;;;;;;11.76;60.59;100431.11;101187;1317;137168;-77
2021/11/20 08:02:26;;;;;;;2.60;2.50;;;;;;;11.79;60.54;100431.04;101322;1321;96638;-76
2021/11/20 08:04:54;;;;;;;2.60;2.50;;;;;;;11.82;60.44;100427.55;100863;1317;183472;-75
2021/11/20 08:07:40;;;;;;;3.10;3.00;;;;;;;11.86;60.36;100433.46;101258;1321;109722;-77
2021/11/20 08:10:33;;;;;;;3.60;3.50;;;;;;;11.95;60.34;100436.25;101113;1321;140058;-74
2021/11/20 08:13:02;;;;;;;3.10;3.00;;;;;;;11.96;60.15;100433.73;100942;1321;96463;-77
2021/11/20 08:15:38;;;;;;;2.40;2.30;;;;;;;11.95;60.23;100440.70;101058;1324;107919;-75
2021/11/20 08:18:26;;;;;;;2.90;2.80;;;;;;;11.97;59.77;100449.73;100798;1319;138767;-76
2021/11/20 08:21:09;;;;;;;3.10;3.00;;;;;;;12.04;59.93;100449.50;101301;1321;95707;-77
2021/11/20 08:23:51;;;;;;;3.00;2.90;;;;;;;12.13;59.79;100451.36;101259;1321;139645;-76
2021/11/20 08:26:23;;;;;;;3.40;3.30;;;;;;;12.17;59.59;100454.05;101505;1317;108917;-76
2021/11/20 08:28:53;;;;;;;2.90;2.80;;;;;;;12.22;59.52;100459.42;101038;1323;139392;-74
2021/11/20 08:31:20;;;;;;;2.20;2.10;;;;;;;12.20;58.85;100460.36;101351;1319;95573;-76
2021/11/20 08:34:15;;;;;;;2.80;2.70;;;;;;;12.23;59.07;100468.48;100975;1321;138101;-77
2021/11/20 08:37:07;;;;;;;3.40;3.30;;;;;;;12.32;58.96;100479.23;100714;1325;107932;-75
2021/11/20 08:39:45;;;;;;;3.10;3.00;;;;;;;12.44;58.71;100485.96;101340;1320;109905;-76
2021/11/20 08:42:15;;;;;;;3.20;3.10;;;;;;;12.47;58.28;100486.75;101050;1321;138598;-76
2021/11/20 08:44:43;;;;;;;3.00;2.90;;;;;;;12.53;57.86;100490.48;101522;1324;97033;-76
2021/11/20 08:47:15;;;;;;;3.30;3.20;;;;;;;12.58;57.76;100492.28;101173;1318;139729;-76
2021/11/20 08:49:44;;;;;;;3.10;3.00;;;;;;;12.65;57.91;100493.81;100985;1323;110296;-75
2021/11/20 08:52:14;;;;;;;3.50;3.40;;;;;;;12.64;57.42;100498.30;101287;1319;138708;-77
2021/11/20 08:54:43;;;;;;;2.30;2.20;;;;;;;12.65;57.66;100499.50;101498;1317;95196;-76
2021/11/20 08:57:13;;;;;;;2.60;2.50;;;;;;;12.68;57.39;100498.70;101269;1320;108883;-76
2021/11/20 08:59:43;;;;;;;2.90;2.80;;;;;;;12.70;57.37;100502.21;101020;1322;140216;-76
2021/11/20 09:02:47;;;;;;;3.30;3.20;;;;;;;12.68;57.15;100503.31;101248;1319;95592;-78
2021/11/20 09:05:52;;;;;;;3.50;3.40;;;;;;;12.67;57.42;100505.68;101076;1323;138049;-77
2021/11/20 09:08:31;;;;;;;3.40;3.30;;;;;;;12.65;57.10;100500.44;100962;1322;109120;-76
2021/11/20 09:11:02;;;;;;;3.80;3.70;;;;;;;12.73;56.92;100497.81;101008;1319;139282;-75
2021/11/20 09:13:39;;;;;;;3.40;3.30;;;;;;;12.66;56.91;100503.08;101222;1319;95529;-76
2021/11/20 09:16:14;;;;;;;2.70;2.60;;;;;;;12.78;57.46;100496.06;101149;1319;138961;-75
2021/11/20 09:18:42;;;;;;;2.30;2.20;;;;;;;13.72;55.17;100489.19;101349;1319;109327;-76
2021/11/20 09:21:11;;;;;;;2.10;2.00;;;;;;;14.02;53.92;100482.84;101340;1316;109560;-76
2021/11/20 09:23:43;;;;;;;2.50;2.40;;;;;;;14.01;53.46;100487.33;101183;1316;138262;-76
2021/11/20 09:26:42;;;;;;;3.10;3.00;;;;;;;13.81;53.87;100486.70;101119;1321;95779;-76
2021/11/20 09:29:13;;;;;;;3.90;3.80;;;;;;;13.62;54.14;100482.42;101068;1321;138200;-75
2021/11/20 09:31:43;;;;;;;3.20;3.10;;;;;;;13.66;53.95;100478.86;101307;1318;109803;-76
2021/11/20 09:34:11;;;;;;;3.60;3.50;;;;;;;13.41;54.22;100480.16;101239;1318;138256;-75
2021/11/20 09:36:44;;;;;;;3.80;3.70;;;;;;;13.28;54.68;100478.80;101181;1322;96622;-76
2021/11/20 09:39:17;;;;;;;3.10;3.00;;;;;;;13.16;55.19;100475.30;101334;1316;108604;-76
2021/11/20 09:42:11;;;;;;;3.80;3.70;;;;;;;13.10;55.35;100468.93;101076;1321;138296;-75
2021/11/20 09:44:47;;;;;;;3.30;3.20;;;;;;;13.10;55.67;100474.46;101315;1320;95257;-75
2021/11/20 09:47:30;;;;;;;3.60;3.50;;;;;;;13.03;55.51;100468.98;101271;1320;137879;-76
2021/11/20 09:50:18;;;;;;;3.80;3.70;;;;;;;12.99;55.92;100468.41;101095;1324;109132;-77
2021/11/20 09:52:49;;;;;;;4.20;4.10;;;;;;;13.00;56.05;100464.81;101218;1319;138943;-77
2021/11/20 09:55:30;;;;;;;3.80;3.70;;;;;;;13.05;55.75;100466.25;101413;1318;95546;-75
2021/11/20 09:58:03;;;;;;;4.00;3.90;;;;;;;13.12;55.04;100465.30;101212;1322;95337;-75
2021/11/20 10:01:05;;;;;;;4.30;4.20;;;;;;;13.10;55.15;100460.20;101243;1319;137707;-77
2021/11/20 10:03:51;;;;;;;3.50;3.40;;;;;;;13.03;55.15;100465.81;101160;1321;109865;-76
2021/11/20 10:06:41;;;;;;;3.20;3.10;;;;;;;12.99;55.54;100461.27;101227;1320;139682;-76
2021/11/20 10:09:09;;;;;;;2.80;2.70;;;;;;;13.15;55.57;100465.19;101403;1320;95231;-76
2021/11/20 10:12:00;;;;;;;3.20;3.10;;;;;;;13.11;54.97;100461.42;101206;1320;138345;-76
2021/11/20 10:14:44;;;;;;;3.30;3.20;;;;;;;13.01;55.82;100456.23;100893;1322;108903;-76
2021/11/20 10:17:13;;;;;;;3.30;3.20;;;;;;;13.05;56.08;100460.89;101339;1318;139229;-76
2021/11/20 10:19:45;;;;;;;3.60;3.50;;;;;;;12.98;55.75;100461.33;101296;1319;96190;-77
2021/11/20 10:22:34;;;;;;;3.10;3.00;;;;;;;12.88;56.08;100465.98;101145;1320;138031;-77
2021/11/20 10:25:05;;;;;;;4.30;4.20;;;;;;;12.76;55.62;100462.98;101315;1319;108830;-77
2021/11/20 10:27:55;;;;;;;3.80;3.70;;;;;;;12.61;55.97;100463.86;101195;1318;96153;-76
2021/11/20 10:30:35;;;;;;;2.90;2.80;;;;;;;12.48;56.60;100462.51;101076;1323;138007;-75
2021/11/20 10:33:17;;;;;;;1.70;1.70;;;;;;;12.46;57.11;100464.35;101262;1320;107883;-77
2021/11/20 10:35:49;;;;;;;3.50;3.40;;;;;;;12.52;56.91;100464.48;101203;1320;138851;-76
2021/11/20 10:38:20;;;;;;;3.80;3.70;;;;;;;12.56;56.72;100462.08;101431;1320;95722;-76
2021/11/20 10:40:58;;;;;;;2.70;2.60;;;;;;;12.60;56.81;100464.42;101031;1322;139731;-76
2021/11/20 10:43:35;;;;;;;3.80;3.70;;;;;;;12.56;56.63;100465.08;101220;1321;109279;-76
2021/11/20 10:46:02;;;;;;;3.60;3.50;;;;;;;12.55;56.49;100464.06;100902;1324;110051;-76
2021/11/20 10:48:41;;;;;;;6.40;6.20;;;;;;;12.57;56.66;100459.88;101050;1324;139348;-76
2021/11/20 10:51:47;;;;;;;10.60;10.20;;;;;;;12.63;56.33;100456.82;101323;1318;95728;-77
2021/11/20 10:54:29;;;;;;;9.40;9.10;;;;;;;12.61;56.09;100457.96;101190;1321;138213;-76
2021/11/20 10:57:07;;;;;;;9.40;9.10;;;;;;;12.62;56.03;100456.15;101335;1319;110389;-76
2021/11/20 10:59:54;;;;;;;10.50;10.10;;;;;;;12.64;56.19;100452.36;101213;1318;138056;-76
2021/11/20 11:02:40;;;;;;;9.40;9.10;;;;;;;12.71;56.31;100448.02;101275;1318;95591;-77
2021/11/20 11:05:33;;;;;;;8.90;8.60;;;;;;;12.78;56.43;100444.05;101109;1320;138998;-76
2021/11/20 11:08:27;;;;;;;9.90;9.50;;;;;;;12.81;56.57;100445.36;101344;1320;108371;-76
2021/11/20 11:11:03;;;;;;;9.40;9.10;;;;;;;12.83;56.44;100439.95;101181;1318;138313;-78
2021/11/20 11:13:56;;;;;;;9.90;9.60;;;;;;;12.89;56.01;100438.65;101119;1324;95326;-76
2021/11/20 11:16:32;;;;;;;9.00;8.70;;;;;;;12.85;55.55;100440.22;101340;1322;138652;-74
2021/11/20 11:19:12;;;;;;;9.40;9.10;;;;;;;12.72;55.46;100439.42;101333;1318;110196;-76
2021/11/20 11:22:02;;;;;;;9.10;8.80;;;;;;;12.65;55.99;100439.14;101365;1318;95851;-76
2021/11/20 11:24:33;;;;;;;9.30;9.00;;;;;;;12.63;56.06;100440.46;101295;1319;138297;-76
2021/11/20 11:27:24;;;;;;;12.00;11.60;;;;;;;12.51;55.83;100443.34;101302;1318;109379;-76
2021/11/20 11:30:09;;;;;;;12.90;12.40;;;;;;;12.42;56.51;100442.05;101220;1318;139842;-75
2021/11/20 11:32:41;;;;;;;10.00;9.70;;;;;;;12.38;56.70;100440.77;101349;1318;97666;-76
2021/11/20 11:35:30;;;;;;;9.40;9.10;;;;;;;12.37;56.73;100447.20;101295;1318;139276;-75
2021/11/20 11:38:17;;;;;;;8.90;8.60;;;;;;;12.45;56.96;100439.63;101268;1318;108814;-75
2021/11/20 11:41:07;;;;;;;11.10;10.70;;;;;;;12.52;57.07;100433.52;101240;1318;139976;-76
2021/11/20 11:43:40;;;;;;;12.80;12.40;;;;;;;12.62;57.25;100429.25;101210;1320;96206;-75
2021/11/20 11:46:47;;;;;;;11.40;11.00;;;;;;;12.70;56.90;100434.17;101325;1325;95828;-75
2021/11/20 11:49:46;;;;;;;11.60;11.20;;;;;;;12.74;57.02;100435.80;101374;1319;108791;-76
2021/11/20 11:52:36;;;;;;;11.20;10.80;;;;;;;12.82;57.02;100435.88;101229;1318;110146;-76
2021/11/20 11:55:25;;;;;;;11.60;11.20;;;;;;;12.90;56.65;100433.64;101363;1318;140105;-77
2021/11/20 11:58:14;;;;;;;12.00;11.60;;;;;;;12.97;56.82;100434.27;101290;1319;95369;-75